RUK4CF GMTT-EGCC
Flight info
| Callsign | RUK4CF |
|---|---|
| Flight time | 2h 48m |
| Altitude | 18000 |
| Route | LAMAD M143 GALTO/N0443F360 N869 BLN DCT MORAL DCT BEXID DCT VTB DCT SIE DCT XERMA DCT ARLUN DCT BUGIX DCT UNGAS DCT DELOG DCT RUSIB DCT NOZHU/N0442F370 DCT SHIRI DCT TOJAQ DCT EPACE DCT ACCOP/N0371F240 P16 AXCIS |
| Aircraft | B38M/M-SDE1FGHILORVWXY/HB1 |
Departure
| Time | 2026-04-21 17:22 |
|---|---|
| Airport | Tangier Ibn Battuta Airport (GMTT) |
Arrival
| Time | 2026-04-21 20:10 |
|---|---|
| Airport | Manchester Airport (EGCC) |
| Time | Latitude | Longitude | Altitude | Speed | Heading |
|---|---|---|---|---|---|
| 2026-04-21 16:49 | 35.72531 | -5.91080 | 62 ft | 0 kts | 355° |
| 2026-04-21 17:09 | 35.72484 | -5.91080 | 56 ft | 4 kts | 356° |
| 2026-04-21 17:09 | 35.72464 | -5.91072 | 54 ft | 3 kts | 295° |
| 2026-04-21 17:09 | 35.72455 | -5.91047 | 57 ft | 4 kts | 290° |
| 2026-04-21 17:10 | 35.72455 | -5.91057 | 57 ft | 3 kts | 266° |
| 2026-04-21 17:10 | 35.72453 | -5.91090 | 57 ft | 4 kts | 266° |
| 2026-04-21 17:10 | 35.72451 | -5.91118 | 62 ft | 1 kts | 266° |
| 2026-04-21 17:15 | 35.72451 | -5.91132 | 62 ft | 4 kts | 266° |
| 2026-04-21 17:15 | 35.72448 | -5.91175 | 62 ft | 6 kts | 266° |
| 2026-04-21 17:15 | 35.72445 | -5.91235 | 62 ft | 8 kts | 266° |
| 2026-04-21 17:15 | 35.72440 | -5.91309 | 62 ft | 10 kts | 265° |
| 2026-04-21 17:16 | 35.72435 | -5.91397 | 62 ft | 11 kts | 265° |
| 2026-04-21 17:16 | 35.72428 | -5.91499 | 62 ft | 13 kts | 265° |
| 2026-04-21 17:16 | 35.72438 | -5.91611 | 59 ft | 14 kts | 296° |
| 2026-04-21 17:16 | 35.72516 | -5.91685 | 59 ft | 15 kts | 346° |
| 2026-04-21 17:17 | 35.72626 | -5.91697 | 62 ft | 17 kts | 355° |
| 2026-04-21 17:17 | 35.72746 | -5.91708 | 62 ft | 18 kts | 355° |
| 2026-04-21 17:17 | 35.72879 | -5.91721 | 59 ft | 19 kts | 356° |
| 2026-04-21 17:17 | 35.72941 | -5.91658 | 57 ft | 14 kts | 98° |
| 2026-04-21 17:18 | 35.72928 | -5.91534 | 60 ft | 15 kts | 97° |
| 2026-04-21 17:18 | 35.72915 | -5.91398 | 62 ft | 17 kts | 97° |
| 2026-04-21 17:18 | 35.72902 | -5.91249 | 60 ft | 18 kts | 96° |
| 2026-04-21 17:18 | 35.72887 | -5.91088 | 62 ft | 20 kts | 97° |
| 2026-04-21 17:19 | 35.72870 | -5.90915 | 58 ft | 21 kts | 96° |
| 2026-04-21 17:19 | 35.72854 | -5.90730 | 60 ft | 23 kts | 97° |
| 2026-04-21 17:19 | 35.72835 | -5.90533 | 62 ft | 24 kts | 96° |
| 2026-04-21 17:19 | 35.72815 | -5.90327 | 58 ft | 25 kts | 97° |
| 2026-04-21 17:20 | 35.72881 | -5.90195 | 57 ft | 13 kts | 15° |
| 2026-04-21 17:20 | 35.72966 | -5.90218 | 59 ft | 8 kts | 320° |
| 2026-04-21 17:20 | 35.72992 | -5.90284 | 58 ft | 6 kts | 277° |
| 2026-04-21 17:20 | 35.72993 | -5.90285 | 58 ft | 0 kts | 277° |
| 2026-04-21 17:21 | 35.72998 | -5.90334 | 61 ft | 29 kts | 276° |
| 2026-04-21 17:21 | 35.73049 | -5.90898 | 62 ft | 101 kts | 277° |
| 2026-04-21 17:21 | 35.73153 | -5.92011 | 63 ft | 158 kts | 276° |
| 2026-04-21 17:21 | 35.73268 | -5.93490 | 407 ft | 179 kts | 274° |
| 2026-04-21 17:22 | 35.73340 | -5.94495 | 953 ft | 176 kts | 273° |
| 2026-04-21 17:22 | 35.73552 | -5.96495 | 2062 ft | 177 kts | 277° |
| 2026-04-21 17:22 | 35.73773 | -5.97992 | 2783 ft | 179 kts | 276° |
| 2026-04-21 17:22 | 35.73961 | -5.99541 | 3399 ft | 187 kts | 272° |
| 2026-04-21 17:23 | 35.73844 | -6.01158 | 3936 ft | 195 kts | 249° |
| 2026-04-21 17:23 | 35.73118 | -6.02645 | 4374 ft | 215 kts | 223° |
| 2026-04-21 17:23 | 35.71815 | -6.03632 | 5011 ft | 224 kts | 197° |
| 2026-04-21 17:23 | 35.70302 | -6.03730 | 6084 ft | 217 kts | 170° |
| 2026-04-21 17:24 | 35.68925 | -6.03011 | 7031 ft | 219 kts | 150° |
| 2026-04-21 17:24 | 35.67800 | -6.01663 | 7699 ft | 237 kts | 132° |
| 2026-04-21 17:24 | 35.67041 | -5.99766 | 8348 ft | 257 kts | 112° |
| 2026-04-21 17:24 | 35.66844 | -5.97550 | 9285 ft | 267 kts | 92° |
| 2026-04-21 17:25 | 35.67281 | -5.95282 | 10073 ft | 282 kts | 74° |
| 2026-04-21 17:25 | 35.68013 | -5.93044 | 10741 ft | 288 kts | 73° |
| 2026-04-21 17:25 | 35.68768 | -5.90742 | 11469 ft | 293 kts | 72° |
| 2026-04-21 17:25 | 35.69560 | -5.88348 | 12069 ft | 305 kts | 71° |
| 2026-04-21 17:26 | 35.70377 | -5.85889 | 12673 ft | 313 kts | 71° |
| 2026-04-21 17:26 | 35.71146 | -5.83391 | 13541 ft | 310 kts | 71° |
| 2026-04-21 17:26 | 35.71958 | -5.80944 | 14284 ft | 311 kts | 70° |
| 2026-04-21 17:26 | 35.72804 | -5.78440 | 14704 ft | 325 kts | 70° |
| 2026-04-21 17:27 | 35.73664 | -5.75846 | 15106 ft | 337 kts | 70° |
| 2026-04-21 17:27 | 35.74538 | -5.73150 | 15744 ft | 340 kts | 71° |
| 2026-04-21 17:27 | 35.75395 | -5.70435 | 16483 ft | 341 kts | 71° |
| 2026-04-21 17:27 | 35.76031 | -5.67617 | 17038 ft | 345 kts | 86° |
| 2026-04-21 17:28 | 35.76317 | -5.64640 | 17452 ft | 355 kts | 85° |
| 2026-04-21 17:28 | 35.76745 | -5.61655 | 18250 ft | 352 kts | 83° |
| 2026-04-21 17:28 | 35.77193 | -5.58678 | 18760 ft | 360 kts | 83° |
| 2026-04-21 17:28 | 35.77640 | -5.55564 | 18840 ft | 379 kts | 83° |
| 2026-04-21 17:29 | 35.78093 | -5.52291 | 19003 ft | 394 kts | 83° |
| 2026-04-21 17:29 | 35.78555 | -5.48916 | 19369 ft | 403 kts | 83° |
| 2026-04-21 17:29 | 35.79034 | -5.45518 | 19977 ft | 404 kts | 83° |
| 2026-04-21 17:29 | 35.79513 | -5.42089 | 20473 ft | 408 kts | 83° |
| 2026-04-21 17:30 | 35.79992 | -5.38639 | 21010 ft | 411 kts | 83° |
| 2026-04-21 17:30 | 35.80475 | -5.35153 | 21524 ft | 414 kts | 83° |
| 2026-04-21 17:30 | 35.80959 | -5.31648 | 22060 ft | 417 kts | 83° |
| 2026-04-21 17:30 | 35.81448 | -5.28108 | 22581 ft | 421 kts | 83° |
| 2026-04-21 17:31 | 35.81939 | -5.24540 | 23059 ft | 424 kts | 83° |
| 2026-04-21 17:31 | 35.82432 | -5.20946 | 23550 ft | 427 kts | 83° |
| 2026-04-21 17:31 | 35.83211 | -5.17398 | 23929 ft | 434 kts | 68° |
| 2026-04-21 17:31 | 35.84771 | -5.14211 | 24347 ft | 438 kts | 50° |
| 2026-04-21 17:32 | 35.86219 | -5.12403 | 24588 ft | 439 kts | 38° |
| 2026-04-21 17:32 | 35.89558 | -5.09558 | 25068 ft | 443 kts | 32° |
| 2026-04-21 17:32 | 35.92139 | -5.07474 | 25450 ft | 445 kts | 32° |
| 2026-04-21 17:32 | 35.94751 | -5.05393 | 25839 ft | 447 kts | 32° |
| 2026-04-21 17:33 | 35.97376 | -5.03314 | 26213 ft | 450 kts | 32° |
| 2026-04-21 17:33 | 36.00017 | -5.01229 | 26584 ft | 452 kts | 32° |
| 2026-04-21 17:33 | 36.01779 | -4.99837 | 26826 ft | 454 kts | 32° |
| 2026-04-21 17:33 | 36.04445 | -4.97730 | 27184 ft | 456 kts | 32° |
| 2026-04-21 17:34 | 36.07161 | -4.95583 | 27547 ft | 458 kts | 32° |
| 2026-04-21 17:34 | 36.09854 | -4.93455 | 27897 ft | 461 kts | 31° |
| 2026-04-21 17:34 | 36.12732 | -4.91734 | 28228 ft | 460 kts | 17° |
| 2026-04-21 17:34 | 36.15727 | -4.90468 | 28515 ft | 463 kts | 19° |
| 2026-04-21 17:35 | 36.18775 | -4.89054 | 29046 ft | 460 kts | 19° |
| 2026-04-21 17:35 | 36.21733 | -4.87688 | 29431 ft | 461 kts | 19° |
| 2026-04-21 17:35 | 36.24753 | -4.86295 | 29697 ft | 465 kts | 19° |
| 2026-04-21 17:35 | 36.27793 | -4.84891 | 30026 ft | 466 kts | 19° |
| 2026-04-21 17:36 | 36.30840 | -4.83484 | 30278 ft | 469 kts | 19° |
| 2026-04-21 17:36 | 36.33901 | -4.82069 | 30543 ft | 471 kts | 19° |
| 2026-04-21 17:36 | 36.36978 | -4.80645 | 30815 ft | 473 kts | 19° |
| 2026-04-21 17:36 | 36.40064 | -4.79216 | 31075 ft | 474 kts | 19° |
| 2026-04-21 17:37 | 36.43163 | -4.77780 | 31336 ft | 476 kts | 19° |
| 2026-04-21 17:37 | 36.46273 | -4.76337 | 31585 ft | 478 kts | 19° |
| 2026-04-21 17:37 | 36.49395 | -4.74887 | 31856 ft | 480 kts | 19° |
| 2026-04-21 17:37 | 36.52530 | -4.73430 | 32120 ft | 482 kts | 19° |
| 2026-04-21 17:38 | 36.55674 | -4.71968 | 32372 ft | 484 kts | 19° |
| 2026-04-21 17:38 | 36.58835 | -4.70497 | 32608 ft | 485 kts | 19° |
| 2026-04-21 17:38 | 36.61997 | -4.69023 | 32910 ft | 486 kts | 19° |
| 2026-04-21 17:38 | 36.65162 | -4.67547 | 33266 ft | 485 kts | 19° |
| 2026-04-21 17:39 | 36.68323 | -4.66072 | 33598 ft | 485 kts | 18° |
| 2026-04-21 17:39 | 36.71486 | -4.64595 | 33904 ft | 485 kts | 18° |
| 2026-04-21 17:39 | 36.74642 | -4.63119 | 34209 ft | 484 kts | 18° |
| 2026-04-21 17:39 | 36.77792 | -4.61645 | 34506 ft | 483 kts | 18° |
| 2026-04-21 17:40 | 36.80932 | -4.60174 | 34776 ft | 482 kts | 18° |
| 2026-04-21 17:40 | 36.84068 | -4.58704 | 35066 ft | 482 kts | 18° |
| 2026-04-21 17:40 | 36.87203 | -4.57233 | 35337 ft | 481 kts | 18° |
| 2026-04-21 17:40 | 36.90336 | -4.55761 | 35606 ft | 480 kts | 18° |
| 2026-04-21 17:41 | 36.93461 | -4.54293 | 35832 ft | 480 kts | 18° |
| 2026-04-21 17:41 | 36.96588 | -4.52821 | 35897 ft | 480 kts | 18° |
| 2026-04-21 17:41 | 37.02828 | -4.49882 | 35871 ft | 478 kts | 18° |
| 2026-04-21 17:42 | 37.09050 | -4.46946 | 35871 ft | 478 kts | 18° |
| 2026-04-21 17:42 | 37.15280 | -4.44000 | 35866 ft | 478 kts | 18° |
| 2026-04-21 17:43 | 37.21505 | -4.41053 | 35880 ft | 479 kts | 18° |
| 2026-04-21 17:43 | 37.27737 | -4.38096 | 35859 ft | 478 kts | 18° |
| 2026-04-21 17:44 | 37.33924 | -4.35156 | 35868 ft | 479 kts | 18° |
| 2026-04-21 17:44 | 37.40197 | -4.32170 | 35873 ft | 479 kts | 18° |
| 2026-04-21 17:45 | 37.46432 | -4.29196 | 35871 ft | 479 kts | 18° |
| 2026-04-21 17:45 | 37.52675 | -4.26213 | 35839 ft | 480 kts | 18° |
| 2026-04-21 17:46 | 37.58930 | -4.23219 | 35852 ft | 481 kts | 18° |
| 2026-04-21 17:46 | 37.65174 | -4.20225 | 35855 ft | 480 kts | 18° |
| 2026-04-21 17:47 | 37.71420 | -4.17224 | 35856 ft | 480 kts | 18° |
| 2026-04-21 17:47 | 37.77626 | -4.14238 | 35848 ft | 480 kts | 18° |
| 2026-04-21 17:48 | 37.83873 | -4.11226 | 35854 ft | 481 kts | 18° |
| 2026-04-21 17:48 | 37.90124 | -4.08206 | 35845 ft | 481 kts | 18° |
| 2026-04-21 17:49 | 37.96375 | -4.05182 | 35850 ft | 481 kts | 18° |
| 2026-04-21 17:49 | 38.02638 | -4.02146 | 35855 ft | 482 kts | 18° |
| 2026-04-21 17:50 | 38.08896 | -3.99107 | 35859 ft | 482 kts | 18° |
| 2026-04-21 17:50 | 38.15155 | -3.96062 | 35852 ft | 481 kts | 18° |
| 2026-04-21 17:51 | 38.21411 | -3.93012 | 35858 ft | 482 kts | 18° |
| 2026-04-21 17:51 | 38.27662 | -3.89960 | 35861 ft | 481 kts | 18° |
| 2026-04-21 17:52 | 38.33914 | -3.86901 | 35869 ft | 481 kts | 18° |
| 2026-04-21 17:52 | 38.40162 | -3.83838 | 35869 ft | 481 kts | 18° |
| 2026-04-21 17:53 | 38.46411 | -3.80770 | 35872 ft | 481 kts | 18° |
| 2026-04-21 17:53 | 38.52653 | -3.77699 | 35874 ft | 480 kts | 18° |
| 2026-04-21 17:54 | 38.58879 | -3.74629 | 35873 ft | 480 kts | 18° |
| 2026-04-21 17:54 | 38.65123 | -3.71547 | 35880 ft | 482 kts | 18° |
| 2026-04-21 17:55 | 38.71378 | -3.68452 | 35882 ft | 482 kts | 18° |
| 2026-04-21 17:55 | 38.77628 | -3.65354 | 35881 ft | 482 kts | 18° |
| 2026-04-21 17:56 | 38.83881 | -3.62249 | 35884 ft | 482 kts | 18° |
| 2026-04-21 17:56 | 38.90123 | -3.59143 | 35883 ft | 481 kts | 18° |
| 2026-04-21 17:57 | 38.96361 | -3.56033 | 35883 ft | 481 kts | 18° |
| 2026-04-21 17:57 | 39.02741 | -3.54035 | 35895 ft | 467 kts | 359° |
| 2026-04-21 17:58 | 39.09247 | -3.53318 | 35886 ft | 470 kts | 360° |
| 2026-04-21 17:58 | 39.15726 | -3.52655 | 35893 ft | 470 kts | 359° |
| 2026-04-21 17:59 | 39.22241 | -3.52004 | 35887 ft | 470 kts | 360° |
| 2026-04-21 17:59 | 39.28763 | -3.51352 | 35890 ft | 470 kts | 360° |
| 2026-04-21 18:00 | 39.35289 | -3.50699 | 35890 ft | 471 kts | 360° |
| 2026-04-21 18:00 | 39.41823 | -3.50043 | 35898 ft | 471 kts | 360° |
| 2026-04-21 18:01 | 39.48366 | -3.49387 | 35893 ft | 472 kts | 0° |
| 2026-04-21 18:01 | 39.54910 | -3.48728 | 35897 ft | 472 kts | 0° |
| 2026-04-21 18:02 | 39.61454 | -3.48072 | 35885 ft | 472 kts | 0° |
| 2026-04-21 18:02 | 39.68004 | -3.47415 | 35885 ft | 472 kts | 0° |
| 2026-04-21 18:03 | 39.74555 | -3.46757 | 35887 ft | 472 kts | 0° |
| 2026-04-21 18:03 | 39.81058 | -3.46703 | 35908 ft | 465 kts | 351° |
| 2026-04-21 18:04 | 39.87531 | -3.47355 | 35886 ft | 466 kts | 351° |
| 2026-04-21 18:04 | 39.94006 | -3.48008 | 35890 ft | 467 kts | 351° |
| 2026-04-21 18:05 | 40.00429 | -3.48657 | 35887 ft | 466 kts | 351° |
| 2026-04-21 18:05 | 40.06898 | -3.49312 | 35891 ft | 466 kts | 351° |
| 2026-04-21 18:06 | 40.13363 | -3.49968 | 35884 ft | 466 kts | 351° |
| 2026-04-21 18:06 | 40.19830 | -3.50625 | 35886 ft | 466 kts | 352° |
| 2026-04-21 18:07 | 40.26286 | -3.51283 | 35888 ft | 465 kts | 352° |
| 2026-04-21 18:07 | 40.32736 | -3.51941 | 35882 ft | 465 kts | 352° |
| 2026-04-21 18:08 | 40.39188 | -3.52601 | 35884 ft | 465 kts | 352° |
| 2026-04-21 18:08 | 40.45639 | -3.53262 | 35888 ft | 465 kts | 352° |
| 2026-04-21 18:09 | 40.52090 | -3.53924 | 35885 ft | 465 kts | 352° |
| 2026-04-21 18:09 | 40.58557 | -3.54589 | 35885 ft | 466 kts | 352° |
| 2026-04-21 18:10 | 40.65022 | -3.55255 | 35902 ft | 466 kts | 352° |
| 2026-04-21 18:10 | 40.71494 | -3.55923 | 35906 ft | 466 kts | 352° |
| 2026-04-21 18:11 | 40.77925 | -3.56589 | 35906 ft | 467 kts | 352° |
| 2026-04-21 18:11 | 40.84407 | -3.57260 | 35906 ft | 467 kts | 352° |
| 2026-04-21 18:12 | 40.90892 | -3.57934 | 35897 ft | 467 kts | 352° |
| 2026-04-21 18:12 | 40.97373 | -3.58608 | 35900 ft | 467 kts | 352° |
| 2026-04-21 18:13 | 41.03847 | -3.59283 | 35892 ft | 467 kts | 352° |
| 2026-04-21 18:13 | 41.10322 | -3.59959 | 35894 ft | 466 kts | 352° |
| 2026-04-21 18:14 | 41.20056 | -3.60497 | 35897 ft | 468 kts | 356° |
| 2026-04-21 18:15 | 41.26568 | -3.60668 | 35881 ft | 468 kts | 355° |
| 2026-04-21 18:15 | 41.33075 | -3.60858 | 35881 ft | 468 kts | 355° |
| 2026-04-21 18:16 | 41.39584 | -3.61050 | 35872 ft | 468 kts | 355° |
| 2026-04-21 18:16 | 41.46092 | -3.61242 | 35868 ft | 468 kts | 355° |
| 2026-04-21 18:17 | 41.52613 | -3.61332 | 35866 ft | 469 kts | 357° |
| 2026-04-21 18:17 | 41.59141 | -3.61325 | 35867 ft | 469 kts | 357° |
| 2026-04-21 18:18 | 41.65669 | -3.61329 | 35859 ft | 469 kts | 357° |
| 2026-04-21 18:18 | 41.72201 | -3.61335 | 35859 ft | 469 kts | 357° |
| 2026-04-21 18:19 | 41.78734 | -3.61341 | 35861 ft | 469 kts | 357° |
| 2026-04-21 18:19 | 41.85265 | -3.61346 | 35859 ft | 469 kts | 357° |
| 2026-04-21 18:20 | 41.90693 | -3.61350 | 35862 ft | 469 kts | 356° |
| 2026-04-21 18:20 | 41.97215 | -3.61356 | 35863 ft | 469 kts | 356° |
| 2026-04-21 18:21 | 42.03724 | -3.61527 | 35878 ft | 467 kts | 353° |
| 2026-04-21 18:21 | 42.10211 | -3.61955 | 35884 ft | 467 kts | 354° |
| 2026-04-21 18:22 | 42.16697 | -3.62352 | 35896 ft | 467 kts | 354° |
| 2026-04-21 18:22 | 42.23183 | -3.62749 | 35907 ft | 467 kts | 354° |
| 2026-04-21 18:23 | 42.29668 | -3.63145 | 35913 ft | 466 kts | 354° |
| 2026-04-21 18:23 | 42.36146 | -3.63634 | 35908 ft | 463 kts | 348° |
| 2026-04-21 18:24 | 42.42480 | -3.64855 | 35913 ft | 463 kts | 348° |
| 2026-04-21 18:24 | 42.48856 | -3.66118 | 35903 ft | 463 kts | 348° |
| 2026-04-21 18:25 | 42.55228 | -3.67387 | 35892 ft | 463 kts | 348° |
| 2026-04-21 18:25 | 42.61600 | -3.68658 | 35870 ft | 463 kts | 348° |
| 2026-04-21 18:26 | 42.67978 | -3.69912 | 35857 ft | 463 kts | 349° |
| 2026-04-21 18:26 | 42.74375 | -3.70981 | 35851 ft | 463 kts | 349° |
| 2026-04-21 18:27 | 42.80778 | -3.72072 | 35850 ft | 464 kts | 349° |
| 2026-04-21 18:27 | 42.87182 | -3.73169 | 35839 ft | 463 kts | 349° |
| 2026-04-21 18:28 | 42.93581 | -3.74266 | 35842 ft | 464 kts | 349° |
| 2026-04-21 18:28 | 42.99985 | -3.75367 | 35824 ft | 463 kts | 349° |
| 2026-04-21 18:29 | 43.06393 | -3.76471 | 35815 ft | 465 kts | 349° |
| 2026-04-21 18:29 | 43.12805 | -3.77578 | 35794 ft | 465 kts | 349° |
| 2026-04-21 18:30 | 43.19219 | -3.78688 | 35778 ft | 465 kts | 349° |
| 2026-04-21 18:30 | 43.25641 | -3.79801 | 35765 ft | 465 kts | 349° |
| 2026-04-21 18:31 | 43.32063 | -3.80916 | 35745 ft | 465 kts | 349° |
| 2026-04-21 18:31 | 43.38442 | -3.82027 | 35746 ft | 466 kts | 349° |
| 2026-04-21 18:32 | 43.44915 | -3.83156 | 35753 ft | 466 kts | 349° |
| 2026-04-21 18:32 | 43.51337 | -3.84279 | 35749 ft | 465 kts | 349° |
| 2026-04-21 18:33 | 43.57716 | -3.85396 | 35753 ft | 465 kts | 349° |
| 2026-04-21 18:33 | 43.64140 | -3.86525 | 35766 ft | 465 kts | 349° |
| 2026-04-21 18:34 | 43.70560 | -3.87654 | 35763 ft | 465 kts | 349° |
| 2026-04-21 18:34 | 43.76978 | -3.88786 | 35776 ft | 465 kts | 349° |
| 2026-04-21 18:35 | 43.82353 | -3.89736 | 35778 ft | 465 kts | 349° |
| 2026-04-21 18:35 | 43.89805 | -3.91055 | 35773 ft | 464 kts | 349° |
| 2026-04-21 18:36 | 43.96216 | -3.92193 | 35776 ft | 464 kts | 349° |
| 2026-04-21 18:36 | 44.02616 | -3.93332 | 35783 ft | 464 kts | 349° |
| 2026-04-21 18:37 | 44.09017 | -3.94472 | 35786 ft | 463 kts | 349° |
| 2026-04-21 18:37 | 44.15414 | -3.95615 | 35792 ft | 463 kts | 349° |
| 2026-04-21 18:38 | 44.21805 | -3.96760 | 35791 ft | 463 kts | 349° |
| 2026-04-21 18:38 | 44.28193 | -3.97905 | 35792 ft | 463 kts | 349° |
| 2026-04-21 18:39 | 44.34606 | -3.98694 | 35797 ft | 466 kts | 359° |
| 2026-04-21 18:39 | 44.41092 | -3.98456 | 35797 ft | 466 kts | 358° |
| 2026-04-21 18:40 | 44.47575 | -3.98229 | 35802 ft | 466 kts | 358° |
| 2026-04-21 18:40 | 44.52962 | -3.98038 | 35806 ft | 466 kts | 358° |
| 2026-04-21 18:41 | 44.60535 | -3.97768 | 35810 ft | 466 kts | 358° |
| 2026-04-21 18:41 | 44.67013 | -3.97537 | 35809 ft | 465 kts | 358° |
| 2026-04-21 18:42 | 44.73482 | -3.97305 | 35813 ft | 465 kts | 358° |
| 2026-04-21 18:42 | 44.79905 | -3.97074 | 35813 ft | 465 kts | 358° |
| 2026-04-21 18:43 | 44.86373 | -3.96842 | 35816 ft | 465 kts | 358° |
| 2026-04-21 18:43 | 44.92836 | -3.96609 | 35822 ft | 465 kts | 358° |
| 2026-04-21 18:44 | 44.99300 | -3.96375 | 35824 ft | 465 kts | 358° |
| 2026-04-21 18:44 | 45.05760 | -3.96141 | 35827 ft | 464 kts | 358° |
| 2026-04-21 18:45 | 45.12221 | -3.95907 | 35829 ft | 464 kts | 358° |
| 2026-04-21 18:45 | 45.18676 | -3.95672 | 35836 ft | 464 kts | 358° |
| 2026-04-21 18:46 | 45.25133 | -3.95437 | 35835 ft | 464 kts | 358° |
| 2026-04-21 18:46 | 45.31590 | -3.95201 | 35844 ft | 464 kts | 358° |
| 2026-04-21 18:47 | 45.38034 | -3.94965 | 35847 ft | 463 kts | 358° |
| 2026-04-21 18:47 | 45.44475 | -3.94728 | 35846 ft | 463 kts | 358° |
| 2026-04-21 18:48 | 45.50915 | -3.94491 | 35852 ft | 462 kts | 358° |
| 2026-04-21 18:48 | 45.57341 | -3.94254 | 35854 ft | 462 kts | 358° |
| 2026-04-21 18:49 | 45.63765 | -3.94017 | 35859 ft | 461 kts | 358° |
| 2026-04-21 18:49 | 45.69100 | -3.93819 | 35867 ft | 461 kts | 358° |
| 2026-04-21 18:50 | 45.76594 | -3.93541 | 35867 ft | 461 kts | 358° |
| 2026-04-21 18:50 | 45.83007 | -3.93303 | 35870 ft | 461 kts | 358° |
| 2026-04-21 18:51 | 45.89421 | -3.93063 | 35876 ft | 460 kts | 358° |
| 2026-04-21 18:51 | 45.95822 | -3.92824 | 35883 ft | 460 kts | 358° |
| 2026-04-21 18:52 | 46.02220 | -3.92584 | 35885 ft | 460 kts | 358° |
| 2026-04-21 18:52 | 46.08571 | -3.92345 | 35890 ft | 459 kts | 358° |
| 2026-04-21 18:53 | 46.14997 | -3.92103 | 35891 ft | 458 kts | 358° |
| 2026-04-21 18:53 | 46.21326 | -3.91865 | 35899 ft | 458 kts | 358° |
| 2026-04-21 18:54 | 46.27697 | -3.91623 | 35903 ft | 458 kts | 358° |
| 2026-04-21 18:54 | 46.34067 | -3.91382 | 35907 ft | 457 kts | 358° |
| 2026-04-21 18:55 | 46.39393 | -3.91180 | 35911 ft | 457 kts | 358° |
| 2026-04-21 18:55 | 46.46772 | -3.90899 | 35914 ft | 456 kts | 358° |
| 2026-04-21 18:56 | 46.53120 | -3.90656 | 35921 ft | 456 kts | 358° |
| 2026-04-21 18:56 | 46.59473 | -3.90414 | 35923 ft | 457 kts | 358° |
| 2026-04-21 18:57 | 46.65822 | -3.90170 | 35928 ft | 457 kts | 358° |
| 2026-04-21 18:57 | 46.72179 | -3.89925 | 35932 ft | 457 kts | 358° |
| 2026-04-21 18:58 | 46.78535 | -3.89680 | 35935 ft | 457 kts | 358° |
| 2026-04-21 18:58 | 46.84886 | -3.89435 | 35937 ft | 456 kts | 358° |
| 2026-04-21 18:59 | 46.91233 | -3.89190 | 35939 ft | 456 kts | 358° |
| 2026-04-21 18:59 | 46.97581 | -3.88944 | 35943 ft | 456 kts | 358° |
| 2026-04-21 19:00 | 47.03922 | -3.88696 | 35948 ft | 456 kts | 358° |
| 2026-04-21 19:00 | 47.10260 | -3.88449 | 35954 ft | 456 kts | 358° |
| 2026-04-21 19:01 | 47.16593 | -3.88202 | 35953 ft | 455 kts | 358° |
| 2026-04-21 19:01 | 47.22934 | -3.87953 | 35961 ft | 455 kts | 358° |
| 2026-04-21 19:02 | 47.29267 | -3.87704 | 35967 ft | 455 kts | 358° |
| 2026-04-21 19:02 | 47.35594 | -3.87455 | 35969 ft | 455 kts | 358° |
| 2026-04-21 19:03 | 47.41872 | -3.87208 | 35976 ft | 454 kts | 358° |
| 2026-04-21 19:03 | 47.48234 | -3.86956 | 35978 ft | 454 kts | 358° |
| 2026-04-21 19:04 | 47.54546 | -3.86706 | 35983 ft | 454 kts | 358° |
| 2026-04-21 19:04 | 47.60816 | -3.86457 | 35990 ft | 453 kts | 358° |
| 2026-04-21 19:05 | 47.67119 | -3.86205 | 35994 ft | 453 kts | 358° |
| 2026-04-21 19:05 | 47.73422 | -3.85954 | 35996 ft | 453 kts | 358° |
| 2026-04-21 19:06 | 47.79725 | -3.85701 | 35998 ft | 453 kts | 358° |
| 2026-04-21 19:06 | 47.86022 | -3.85448 | 35999 ft | 453 kts | 358° |
| 2026-04-21 19:07 | 47.92319 | -3.85195 | 36002 ft | 452 kts | 358° |
| 2026-04-21 19:07 | 47.97543 | -3.84984 | 36002 ft | 452 kts | 358° |
| 2026-04-21 19:08 | 48.03829 | -3.84730 | 36006 ft | 452 kts | 358° |
| 2026-04-21 19:08 | 48.10114 | -3.84476 | 36009 ft | 452 kts | 358° |
| 2026-04-21 19:09 | 48.16394 | -3.84220 | 36016 ft | 451 kts | 358° |
| 2026-04-21 19:09 | 48.22671 | -3.83965 | 36026 ft | 451 kts | 358° |
| 2026-04-21 19:10 | 48.28935 | -3.83709 | 36036 ft | 450 kts | 358° |
| 2026-04-21 19:10 | 48.35200 | -3.83453 | 36044 ft | 450 kts | 358° |
| 2026-04-21 19:11 | 48.41450 | -3.83197 | 36043 ft | 449 kts | 358° |
| 2026-04-21 19:11 | 48.47689 | -3.82940 | 36048 ft | 448 kts | 358° |
| 2026-04-21 19:12 | 48.53912 | -3.82684 | 36049 ft | 447 kts | 358° |
| 2026-04-21 19:12 | 48.60126 | -3.82427 | 36050 ft | 446 kts | 358° |
| 2026-04-21 19:13 | 48.66290 | -3.82172 | 36047 ft | 446 kts | 358° |
| 2026-04-21 19:13 | 48.72495 | -3.81914 | 36051 ft | 446 kts | 358° |
| 2026-04-21 19:14 | 48.78698 | -3.81656 | 36055 ft | 446 kts | 358° |
| 2026-04-21 19:14 | 48.84905 | -3.81398 | 36071 ft | 446 kts | 357° |
| 2026-04-21 19:15 | 48.91104 | -3.81138 | 36076 ft | 445 kts | 357° |
| 2026-04-21 19:15 | 48.97296 | -3.80868 | 36079 ft | 445 kts | 358° |
| 2026-04-21 19:16 | 49.03486 | -3.80484 | 36096 ft | 445 kts | 358° |
| 2026-04-21 19:16 | 49.09672 | -3.80110 | 36087 ft | 444 kts | 358° |
| 2026-04-21 19:17 | 49.18936 | -3.79550 | 36100 ft | 444 kts | 358° |
| 2026-04-21 19:17 | 49.25108 | -3.79176 | 36113 ft | 443 kts | 358° |
| 2026-04-21 19:18 | 49.31269 | -3.78801 | 36112 ft | 443 kts | 358° |
| 2026-04-21 19:18 | 49.37432 | -3.78426 | 36119 ft | 443 kts | 358° |
| 2026-04-21 19:19 | 49.43545 | -3.78052 | 36129 ft | 443 kts | 358° |
| 2026-04-21 19:19 | 49.49698 | -3.77676 | 36126 ft | 442 kts | 358° |
| 2026-04-21 19:20 | 49.55842 | -3.77298 | 36138 ft | 442 kts | 358° |
| 2026-04-21 19:20 | 49.61984 | -3.76920 | 36134 ft | 441 kts | 358° |
| 2026-04-21 19:21 | 49.68121 | -3.76541 | 36150 ft | 441 kts | 358° |
| 2026-04-21 19:21 | 49.74249 | -3.75819 | 36154 ft | 441 kts | 360° |
| 2026-04-21 19:22 | 49.80368 | -3.75100 | 36156 ft | 441 kts | 360° |
| 2026-04-21 19:22 | 49.86490 | -3.74384 | 36165 ft | 441 kts | 360° |
| 2026-04-21 19:23 | 49.92602 | -3.73667 | 36170 ft | 441 kts | 360° |
| 2026-04-21 19:23 | 49.98716 | -3.72950 | 36175 ft | 440 kts | 0° |
| 2026-04-21 19:24 | 50.04823 | -3.72231 | 36228 ft | 441 kts | 0° |
| 2026-04-21 19:24 | 50.07882 | -3.71869 | 36497 ft | 440 kts | 0° |
| 2026-04-21 19:24 | 50.10938 | -3.71508 | 36717 ft | 441 kts | 0° |
| 2026-04-21 19:25 | 50.13998 | -3.71146 | 36941 ft | 441 kts | 0° |
| 2026-04-21 19:25 | 50.17022 | -3.70788 | 37143 ft | 441 kts | 0° |
| 2026-04-21 19:25 | 50.23151 | -3.70060 | 37178 ft | 441 kts | 0° |
| 2026-04-21 19:26 | 50.29266 | -3.69333 | 37194 ft | 441 kts | 1° |
| 2026-04-21 19:26 | 50.35380 | -3.68604 | 37191 ft | 441 kts | 1° |
| 2026-04-21 19:27 | 50.41492 | -3.67815 | 37196 ft | 441 kts | 3° |
| 2026-04-21 19:27 | 50.47597 | -3.66716 | 37194 ft | 441 kts | 3° |
| 2026-04-21 19:28 | 50.53695 | -3.65544 | 37202 ft | 442 kts | 4° |
| 2026-04-21 19:28 | 50.59795 | -3.64381 | 37206 ft | 442 kts | 4° |
| 2026-04-21 19:29 | 50.65894 | -3.63217 | 37212 ft | 442 kts | 4° |
| 2026-04-21 19:29 | 50.71993 | -3.62050 | 37213 ft | 441 kts | 4° |
| 2026-04-21 19:30 | 50.78093 | -3.60879 | 37213 ft | 442 kts | 4° |
| 2026-04-21 19:30 | 50.84200 | -3.59704 | 37209 ft | 442 kts | 4° |
| 2026-04-21 19:31 | 50.90305 | -3.58526 | 37216 ft | 442 kts | 4° |
| 2026-04-21 19:31 | 50.96411 | -3.57344 | 37216 ft | 442 kts | 4° |
| 2026-04-21 19:32 | 51.02518 | -3.56160 | 37216 ft | 442 kts | 4° |
| 2026-04-21 19:32 | 51.08622 | -3.54973 | 37223 ft | 442 kts | 4° |
| 2026-04-21 19:33 | 51.14687 | -3.53790 | 37234 ft | 442 kts | 4° |
| 2026-04-21 19:33 | 51.20782 | -3.52599 | 37241 ft | 441 kts | 4° |
| 2026-04-21 19:34 | 51.26872 | -3.51405 | 37238 ft | 441 kts | 4° |
| 2026-04-21 19:34 | 51.32962 | -3.50207 | 37240 ft | 441 kts | 4° |
| 2026-04-21 19:35 | 51.42090 | -3.48407 | 37238 ft | 440 kts | 4° |
| 2026-04-21 19:36 | 51.48166 | -3.47205 | 37238 ft | 440 kts | 4° |
| 2026-04-21 19:36 | 51.54238 | -3.46000 | 37233 ft | 440 kts | 4° |
| 2026-04-21 19:36 | 51.57260 | -3.45399 | 37010 ft | 434 kts | 3° |
| 2026-04-21 19:37 | 51.60234 | -3.44807 | 36751 ft | 428 kts | 3° |
| 2026-04-21 19:37 | 51.63178 | -3.44220 | 36509 ft | 425 kts | 3° |
| 2026-04-21 19:37 | 51.66104 | -3.43636 | 36252 ft | 422 kts | 3° |
| 2026-04-21 19:37 | 51.69011 | -3.43055 | 36014 ft | 420 kts | 2° |
| 2026-04-21 19:38 | 51.71901 | -3.42477 | 35806 ft | 417 kts | 2° |
| 2026-04-21 19:38 | 51.74773 | -3.41902 | 35562 ft | 415 kts | 2° |
| 2026-04-21 19:38 | 51.76667 | -3.41522 | 35405 ft | 413 kts | 2° |
| 2026-04-21 19:38 | 51.80472 | -3.40757 | 35069 ft | 409 kts | 2° |
| 2026-04-21 19:39 | 51.83283 | -3.40193 | 34563 ft | 407 kts | 1° |
| 2026-04-21 19:39 | 51.86105 | -3.39624 | 33905 ft | 409 kts | 1° |
| 2026-04-21 19:39 | 51.88928 | -3.39054 | 33323 ft | 408 kts | 1° |
| 2026-04-21 19:39 | 51.91726 | -3.38489 | 32891 ft | 403 kts | 1° |
| 2026-04-21 19:40 | 51.94494 | -3.38200 | 32374 ft | 397 kts | 356° |
| 2026-04-21 19:40 | 51.97244 | -3.38030 | 31901 ft | 395 kts | 357° |
| 2026-04-21 19:40 | 51.99977 | -3.37835 | 31467 ft | 391 kts | 357° |
| 2026-04-21 19:40 | 52.02687 | -3.37625 | 31025 ft | 388 kts | 358° |
| 2026-04-21 19:41 | 52.05370 | -3.37412 | 30595 ft | 385 kts | 358° |
| 2026-04-21 19:41 | 52.08040 | -3.37198 | 30125 ft | 382 kts | 358° |
| 2026-04-21 19:41 | 52.10685 | -3.36985 | 29644 ft | 379 kts | 358° |
| 2026-04-21 19:41 | 52.13300 | -3.36775 | 29224 ft | 374 kts | 357° |
| 2026-04-21 19:42 | 52.15893 | -3.36589 | 28760 ft | 371 kts | 357° |
| 2026-04-21 19:42 | 52.18456 | -3.36404 | 28392 ft | 366 kts | 357° |
| 2026-04-21 19:42 | 52.20985 | -3.36221 | 28030 ft | 362 kts | 357° |
| 2026-04-21 19:42 | 52.23487 | -3.36039 | 27647 ft | 358 kts | 357° |
| 2026-04-21 19:43 | 52.25928 | -3.35861 | 27278 ft | 355 kts | 357° |
| 2026-04-21 19:43 | 52.28386 | -3.35682 | 26904 ft | 351 kts | 357° |
| 2026-04-21 19:43 | 52.30848 | -3.35502 | 26542 ft | 348 kts | 357° |
| 2026-04-21 19:43 | 52.33227 | -3.35327 | 26191 ft | 345 kts | 357° |
| 2026-04-21 19:44 | 52.35616 | -3.35153 | 25842 ft | 342 kts | 357° |
| 2026-04-21 19:44 | 52.37988 | -3.34980 | 25485 ft | 340 kts | 357° |
| 2026-04-21 19:44 | 52.40335 | -3.34807 | 25146 ft | 336 kts | 357° |
| 2026-04-21 19:44 | 52.42667 | -3.34636 | 24807 ft | 334 kts | 357° |
| 2026-04-21 19:45 | 52.44977 | -3.34466 | 24465 ft | 332 kts | 357° |
| 2026-04-21 19:45 | 52.47278 | -3.34297 | 24108 ft | 331 kts | 357° |
| 2026-04-21 19:45 | 52.49575 | -3.34127 | 23735 ft | 329 kts | 357° |
| 2026-04-21 19:45 | 52.51852 | -3.33959 | 23368 ft | 326 kts | 358° |
| 2026-04-21 19:46 | 52.54108 | -3.33792 | 23041 ft | 322 kts | 358° |
| 2026-04-21 19:46 | 52.56329 | -3.33628 | 22719 ft | 318 kts | 358° |
| 2026-04-21 19:46 | 52.58528 | -3.33466 | 22393 ft | 314 kts | 358° |
| 2026-04-21 19:46 | 52.60699 | -3.33304 | 22082 ft | 310 kts | 358° |
| 2026-04-21 19:47 | 52.62846 | -3.33026 | 21748 ft | 312 kts | 8° |
| 2026-04-21 19:47 | 52.64939 | -3.31906 | 21402 ft | 320 kts | 15° |
| 2026-04-21 19:47 | 52.67056 | -3.30674 | 21083 ft | 324 kts | 15° |
| 2026-04-21 19:47 | 52.69184 | -3.29424 | 20755 ft | 325 kts | 16° |
| 2026-04-21 19:48 | 52.71309 | -3.28164 | 20441 ft | 324 kts | 16° |
| 2026-04-21 19:48 | 52.73427 | -3.26903 | 20137 ft | 323 kts | 17° |
| 2026-04-21 19:48 | 52.75525 | -3.25650 | 19860 ft | 319 kts | 17° |
| 2026-04-21 19:48 | 52.77613 | -3.24402 | 19588 ft | 320 kts | 18° |
| 2026-04-21 19:49 | 52.79710 | -3.23146 | 19309 ft | 320 kts | 18° |
| 2026-04-21 19:49 | 52.81806 | -3.21889 | 19022 ft | 320 kts | 19° |
| 2026-04-21 19:49 | 52.83896 | -3.20634 | 18731 ft | 320 kts | 20° |
| 2026-04-21 19:49 | 52.85984 | -3.19380 | 18410 ft | 319 kts | 20° |
| 2026-04-21 19:50 | 52.87363 | -3.18551 | 18191 ft | 318 kts | 21° |
| 2026-04-21 19:50 | 52.90213 | -3.17335 | 17739 ft | 317 kts | 4° |
| 2026-04-21 19:50 | 52.92404 | -3.17182 | 17470 ft | 315 kts | 4° |
| 2026-04-21 19:50 | 52.94597 | -3.16994 | 17187 ft | 315 kts | 4° |
| 2026-04-21 19:51 | 52.96783 | -3.16815 | 16908 ft | 314 kts | 5° |
| 2026-04-21 19:51 | 52.98959 | -3.16641 | 16616 ft | 313 kts | 5° |
| 2026-04-21 19:51 | 53.01127 | -3.16471 | 16337 ft | 311 kts | 5° |
| 2026-04-21 19:51 | 53.03289 | -3.16300 | 16054 ft | 311 kts | 5° |
| 2026-04-21 19:52 | 53.05436 | -3.16130 | 15768 ft | 307 kts | 5° |
| 2026-04-21 19:52 | 53.07575 | -3.15962 | 15461 ft | 308 kts | 6° |
| 2026-04-21 19:52 | 53.09712 | -3.15793 | 15193 ft | 307 kts | 6° |
| 2026-04-21 19:52 | 53.11813 | -3.15355 | 14852 ft | 303 kts | 20° |
| 2026-04-21 19:53 | 53.13699 | -3.13893 | 14493 ft | 297 kts | 35° |
| 2026-04-21 19:53 | 53.15437 | -3.12052 | 14175 ft | 295 kts | 36° |
| 2026-04-21 19:53 | 53.17164 | -3.10229 | 13848 ft | 292 kts | 36° |
| 2026-04-21 19:53 | 53.18873 | -3.08426 | 13544 ft | 289 kts | 36° |
| 2026-04-21 19:54 | 53.19997 | -3.07238 | 13350 ft | 287 kts | 36° |
| 2026-04-21 19:54 | 53.21672 | -3.05466 | 13040 ft | 284 kts | 36° |
| 2026-04-21 19:54 | 53.23332 | -3.03710 | 12735 ft | 281 kts | 36° |
| 2026-04-21 19:54 | 53.24976 | -3.01967 | 12440 ft | 279 kts | 36° |
| 2026-04-21 19:55 | 53.26607 | -3.00238 | 12146 ft | 276 kts | 36° |
| 2026-04-21 19:55 | 53.28219 | -2.98527 | 11880 ft | 273 kts | 36° |
| 2026-04-21 19:55 | 53.30330 | -2.96284 | 11500 ft | 270 kts | 36° |
| 2026-04-21 19:55 | 53.31397 | -2.95150 | 11294 ft | 268 kts | 36° |
| 2026-04-21 19:56 | 53.32966 | -2.93480 | 11014 ft | 266 kts | 36° |
| 2026-04-21 19:56 | 53.34519 | -2.91826 | 10747 ft | 263 kts | 36° |
| 2026-04-21 19:56 | 53.36058 | -2.90185 | 10471 ft | 264 kts | 36° |
| 2026-04-21 19:56 | 53.37626 | -2.88512 | 10169 ft | 270 kts | 36° |
| 2026-04-21 19:57 | 53.39213 | -2.86817 | 9842 ft | 271 kts | 36° |
| 2026-04-21 19:57 | 53.40804 | -2.85116 | 9542 ft | 272 kts | 36° |
| 2026-04-21 19:57 | 53.42402 | -2.83407 | 9242 ft | 271 kts | 36° |
| 2026-04-21 19:57 | 53.43983 | -2.81714 | 8947 ft | 269 kts | 36° |
| 2026-04-21 19:58 | 53.45552 | -2.80033 | 8655 ft | 266 kts | 36° |
| 2026-04-21 19:58 | 53.47109 | -2.78363 | 8363 ft | 264 kts | 36° |
| 2026-04-21 19:58 | 53.48646 | -2.76712 | 8078 ft | 261 kts | 36° |
| 2026-04-21 19:58 | 53.50171 | -2.75075 | 7785 ft | 259 kts | 37° |
| 2026-04-21 19:59 | 53.51452 | -2.73081 | 7575 ft | 245 kts | 62° |
| 2026-04-21 19:59 | 53.51952 | -2.70438 | 7450 ft | 239 kts | 90° |
| 2026-04-21 19:59 | 53.51566 | -2.67726 | 7386 ft | 244 kts | 118° |
| 2026-04-21 19:59 | 53.50431 | -2.65600 | 7396 ft | 245 kts | 138° |
| 2026-04-21 20:00 | 53.49098 | -2.63874 | 7395 ft | 239 kts | 140° |
| 2026-04-21 20:00 | 53.47792 | -2.62227 | 7394 ft | 231 kts | 140° |
| 2026-04-21 20:00 | 53.46536 | -2.60647 | 7390 ft | 227 kts | 140° |
| 2026-04-21 20:00 | 53.45270 | -2.59060 | 7397 ft | 227 kts | 140° |
| 2026-04-21 20:01 | 53.44004 | -2.57471 | 7395 ft | 227 kts | 140° |
| 2026-04-21 20:01 | 53.42743 | -2.55891 | 7396 ft | 227 kts | 140° |
| 2026-04-21 20:01 | 53.41379 | -2.54558 | 7380 ft | 231 kts | 160° |
| 2026-04-21 20:01 | 53.39755 | -2.54464 | 7314 ft | 241 kts | 185° |
| 2026-04-21 20:02 | 53.38099 | -2.55115 | 6908 ft | 248 kts | 189° |
| 2026-04-21 20:02 | 53.36420 | -2.55869 | 6351 ft | 251 kts | 189° |
| 2026-04-21 20:02 | 53.34731 | -2.56658 | 5807 ft | 253 kts | 190° |
| 2026-04-21 20:02 | 53.33033 | -2.57466 | 5269 ft | 257 kts | 190° |
| 2026-04-21 20:03 | 53.31297 | -2.58303 | 4819 ft | 261 kts | 189° |
| 2026-04-21 20:03 | 53.29571 | -2.59164 | 4392 ft | 258 kts | 190° |
| 2026-04-21 20:03 | 53.27891 | -2.60030 | 4161 ft | 243 kts | 189° |
| 2026-04-21 20:03 | 53.26354 | -2.60862 | 4060 ft | 223 kts | 189° |
| 2026-04-21 20:04 | 53.24925 | -2.61629 | 3963 ft | 206 kts | 184° |
| 2026-04-21 20:04 | 53.23645 | -2.61489 | 3894 ft | 170 kts | 146° |
| 2026-04-21 20:04 | 53.22888 | -2.60186 | 3848 ft | 154 kts | 106° |
| 2026-04-21 20:04 | 53.22904 | -2.58436 | 3860 ft | 155 kts | 78° |
| 2026-04-21 20:05 | 53.23237 | -2.56697 | 3858 ft | 158 kts | 75° |
| 2026-04-21 20:05 | 53.23591 | -2.54963 | 3786 ft | 158 kts | 75° |
| 2026-04-21 20:05 | 53.23941 | -2.53238 | 3703 ft | 156 kts | 75° |
| 2026-04-21 20:05 | 53.24295 | -2.51530 | 3578 ft | 155 kts | 74° |
| 2026-04-21 20:06 | 53.24759 | -2.49904 | 3419 ft | 156 kts | 66° |
| 2026-04-21 20:06 | 53.25348 | -2.48370 | 3228 ft | 157 kts | 61° |
| 2026-04-21 20:06 | 53.26000 | -2.46894 | 3034 ft | 159 kts | 59° |
| 2026-04-21 20:06 | 53.26685 | -2.45442 | 2831 ft | 159 kts | 58° |
| 2026-04-21 20:07 | 53.27382 | -2.44000 | 2614 ft | 159 kts | 57° |
| 2026-04-21 20:07 | 53.28078 | -2.42563 | 2390 ft | 159 kts | 57° |
| 2026-04-21 20:07 | 53.28770 | -2.41135 | 2181 ft | 158 kts | 57° |
| 2026-04-21 20:07 | 53.29452 | -2.39725 | 1972 ft | 157 kts | 57° |
| 2026-04-21 20:08 | 53.30149 | -2.38286 | 1759 ft | 158 kts | 56° |
| 2026-04-21 20:08 | 53.30833 | -2.36875 | 1539 ft | 158 kts | 56° |
| 2026-04-21 20:08 | 53.31521 | -2.35451 | 1323 ft | 157 kts | 54° |
| 2026-04-21 20:08 | 53.32184 | -2.34088 | 1112 ft | 148 kts | 55° |
| 2026-04-21 20:09 | 53.32815 | -2.32775 | 902 ft | 140 kts | 54° |
| 2026-04-21 20:09 | 53.33420 | -2.31529 | 690 ft | 138 kts | 53° |
| 2026-04-21 20:09 | 53.34018 | -2.30282 | 492 ft | 135 kts | 53° |
| 2026-04-21 20:09 | 53.34613 | -2.29056 | 317 ft | 135 kts | 52° |
| 2026-04-21 20:10 | 53.35184 | -2.27887 | 241 ft | 114 kts | 51° |
| 2026-04-21 20:10 | 53.35513 | -2.27208 | 257 ft | 49 kts | 51° |
| 2026-04-21 20:10 | 53.35726 | -2.26768 | 267 ft | 34 kts | 51° |
| 2026-04-21 20:10 | 53.35792 | -2.26675 | 267 ft | 8 kts | 355° |
| 2026-04-21 20:11 | 53.35859 | -2.26694 | 263 ft | 14 kts | 351° |
| 2026-04-21 20:11 | 53.35902 | -2.26718 | 259 ft | 3 kts | 319° |
| 2026-04-21 20:11 | 53.35912 | -2.26743 | 258 ft | 2 kts | 297° |
| 2026-04-21 20:11 | 53.35915 | -2.26754 | 258 ft | 0 kts | 293° |
| 2026-04-21 20:12 | 53.35917 | -2.26763 | 258 ft | 3 kts | 291° |
| 2026-04-21 20:12 | 53.35922 | -2.26822 | 258 ft | 7 kts | 262° |
| 2026-04-21 20:12 | 53.35921 | -2.26914 | 258 ft | 9 kts | 277° |
| 2026-04-21 20:12 | 53.35926 | -2.26973 | 258 ft | 4 kts | 277° |
| 2026-04-21 20:13 | 53.35927 | -2.26992 | 258 ft | 1 kts | 277° |
| 2026-04-21 20:13 | 53.35927 | -2.26993 | 258 ft | 0 kts | 276° |